Nearby METAR Reports

 

KIAD - Wash Dc/Dulles, Virginia, USA
Distance from station: ESE 7mi, 11km
Updated: Sat, 15-Dec-2018 11:05pm EST
Light rain, Mist, Overcast
Light rain, Mist, Overcast
 Wind from NE
Wind: NE 13 mph , 20 km/h
Temperature: 50°F , 10°C
Wind Chill: 45°F , 7°C
Dew Point: 48°F , 9°C
Humidity: 94%
Barometer: 29.92 inHg , 1013.2 hPa
Summary: Light rain, Mist
Clouds: Overcast
Visibility: 3 miles , 5 km
Cloud details: Mostly cloudy 900 ft
Overcast 1800 ft
2018/12/16 04:05 KIAD 160405Z 04011KT 3SM -RA BR BKN009 OVC018 10/09 A2992 RMK AO2 P0003 T01000094
KJYO - Leesburg/Godfrey, Virginia, USA
Distance from station: N 7mi, 12km
Updated: Sat, 15-Dec-2018 11:35pm EST
Rain, Overcast
Rain, Overcast
 Wind from NE
Wind: NE 10 mph , 17 km/h, Gust: 17 mph , 28 km/h
Temperature: 45°F , 7°C
Wind Chill: 40°F , 4°C
Dew Point: 45°F , 7°C
Humidity: 100%
Barometer: 29.93 inHg , 1013.5 hPa
Summary: Rain
Clouds: Overcast
Visibility: 5 miles , 8 km
Cloud details: Overcast 300 ft
2018/12/16 04:35 KJYO 160435Z AUTO 04009G15KT 5SM RA OVC003 07/07 A2993 RMK AO2 P0013
 
KHEF - Manassas Muni, Virginia, USA
Distance from station: S 17mi, 28km
Updated: Sat, 15-Dec-2018 11:25pm EST
Overcast
Overcast
 Wind from NNE
Wind: NNE 9 mph , 15 km/h
Temperature: 50°F , 10°C
Wind Chill: 46°F , 8°C
Dew Point: 48°F , 9°C
Humidity: 94%
Barometer: 29.90 inHg , 1012.5 hPa
Clouds: Overcast
Visibility: 8 miles , 13 km
Cloud details: Mostly cloudy 700 ft
Mostly cloudy 2300 ft
Overcast 3600 ft
2018/12/16 04:25 KHEF 160425Z AUTO 03008KT 8SM BKN007 BKN023 OVC036 10/09 A2990 RMK AO2 CIG 005V012 PNO $
KGAI - Gaithersburg, Maryland, USA
Distance from station: NE 26mi, 41km
Updated: Sat, 15-Dec-2018 11:27pm EST
Heavy rain, Mist, Overcast
Heavy rain, Mist, Overcast
 Wind from ENE
Wind: ENE 6 mph , 9 km/h
Temperature: 48°F , 9°C
Wind Chill: 45°F , 7°C
Dew Point: 46°F , 8°C
Humidity: 94%
Barometer: 29.93 inHg , 1013.5 hPa
Summary: Heavy rain, Mist
Clouds: Overcast
Visibility: 4 miles , 6 km
Cloud details: Mostly cloudy 700 ft
Overcast 1300 ft
2018/12/16 04:27 KGAI 160427Z AUTO 06005KT 4SM +RA BR BKN007 OVC013 09/08 A2993 RMK AO2 CIG 005V010 P0014
 
KDAA - Fort Belvoir/Dav, Virginia, USA
Distance from station: SE 27mi, 44km
Updated: Sat, 15-Dec-2018 11:26pm EST
Light rain, Mist, Overcast
Light rain, Mist, Overcast
 Wind from NW
Wind: NW 6 mph , 9 km/h
Temperature: 50°F , 10°C
Wind Chill: 48°F , 9°C
Dew Point: 48°F , 9°C
Humidity: 94%
Barometer: 29.90 inHg , 1012.5 hPa
Summary: Light rain, Mist
Clouds: Overcast
Visibility: 6 miles , 10 km
Cloud details: Mostly cloudy 600 ft
Overcast 1800 ft
2018/12/16 04:26 KDAA 160426Z AUTO 32005KT 6SM -RA BR BKN006 OVC018 10/09 A2990 RMK AO2 CIG 005V018 BKN V SCT SLP128 TSNO $
KHWY - Warrenton, Virginia, USA
Distance from station: SSW 27mi, 44km
Updated: Sat, 15-Dec-2018 11:35pm EST
Overcast
Overcast
 Wind from NNE
Wind: NNE 8 mph , 13 km/h
Temperature: 52°F , 11°C
Dew Point: 48°F , 9°C
Humidity: 88%
Barometer: 29.88 inHg , 1011.9 hPa
Clouds: Overcast
Visibility: 10 miles , 16 km
Cloud details: Overcast 600 ft
2018/12/16 04:35 KHWY 160435Z AUTO 03007KT 10SM OVC006 11/09 A2988 RMK AO2 P0001 T01080091
 
KDCA - Washington/Natl, Washington D.c., USA
Distance from station: ESE 30mi, 48km
Updated: Sat, 15-Dec-2018 11:24pm EST
Rain, Mist, Overcast
Rain, Mist, Overcast
 Wind from NNE
Wind: NNE 13 mph , 20 km/h
Temperature: 50°F , 10°C
Wind Chill: 45°F , 7°C
Dew Point: 48°F , 9°C
Humidity: 94%
Barometer: 29.91 inHg , 1012.9 hPa
Summary: Rain, Mist
Clouds: Overcast
Visibility: 3 miles , 5 km
Cloud details: Mostly cloudy 600 ft
Overcast 1100 ft
2018/12/16 04:24 KDCA 160424Z 02011KT 3SM RA BR BKN006 OVC011 10/09 A2991 RMK AO2 P0005 T01000089
KFDK - Frederick, Maryland, USA
Distance from station: NNE 33mi, 53km
Updated: Sat, 15-Dec-2018 11:25pm EST
Rain, Overcast
Rain, Overcast
 Wind from N
Wind: N 12 mph , 19 km/h
Temperature: 46°F , 8°C
Wind Chill: 40°F , 4°C
Dew Point: 45°F , 7°C
Humidity: 93%
Barometer: 29.99 inHg , 1015.6 hPa
Summary: Rain
Clouds: Overcast
Visibility: 4 miles , 6 km
Cloud details: Mostly cloudy 500 ft
Overcast 1100 ft
2018/12/16 04:25 KFDK 160425Z AUTO 01010KT 4SM RA BKN005 OVC011 08/07 A2999 RMK AO2 P0009
 
KOKV - Winchester Rgnl, Virginia, USA
Distance from station: WNW 33mi, 54km
Updated: Sat, 15-Dec-2018 11:35pm EST
Light rain, Overcast
Light rain, Overcast
 Wind from NNE
Wind: NNE 5 mph , 7 km/h
Temperature: 45°F , 7°C
Wind Chill: 42°F , 6°C
Dew Point: 45°F , 7°C
Humidity: 100%
Summary: Light rain
Clouds: Overcast
Visibility: 5 miles , 8 km
Cloud details: Overcast 300 ft
2018/12/16 04:35 KOKV 160435Z AUTO 02004KT 5SM -RA OVC003 07/07 RMK AO2 P0005
KCJR - Culpeper, Virginia, USA
Distance from station: SSW 34mi, 54km
Updated: Sat, 15-Dec-2018 11:10pm EST
Rain, Overcast
Rain, Overcast
 Wind from NNE
Wind: NNE 6 mph , 9 km/h
Temperature: 52°F , 11°C
Dew Point: 50°F , 10°C
Humidity: 94%
Barometer: 29.90 inHg , 1012.5 hPa
Summary: Rain
Clouds: Overcast
Visibility: 7 miles , 11 km
Cloud details: Overcast 800 ft
2018/12/16 04:10 KCJR 160410Z AUTO 02005KT 7SM RA OVC008 11/10 A2990 RMK AO2 T01120101
 
KCGS - College Park, Maryland, USA
Distance from station: E 35mi, 56km
Updated: Sat, 15-Dec-2018 11:23pm EST
Overcast
Overcast
 Wind from N
Wind: N 3 mph , 6 km/h
Temperature: 48°F , 9°C
Dew Point: 46°F , 8°C
Humidity: 94%
Barometer: 29.91 inHg , 1012.9 hPa
Clouds: Overcast
Visibility: 4 miles , 6 km
Cloud details: Mostly cloudy 800 ft
Mostly cloudy 1500 ft
Overcast 2000 ft
2018/12/16 04:23 KCGS 160423Z AUTO 36003KT 4SM BKN008 BKN015 OVC020 09/08 A2991 RMK AO1 T00880082
KNYG - Quantico Mcaf, Virginia, USA
Distance from station: SSE 35mi, 57km
Updated: Sat, 15-Dec-2018 11:30pm EST
Light rain, Mist, Overcast
Light rain, Mist, Overcast
 Wind from NNE
Wind: NNE 9 mph , 15 km/h
Temperature: 52°F , 11°C
Dew Point: 52°F , 11°C
Humidity: 100%
Barometer: 29.90 inHg , 1012.5 hPa
Summary: Light rain, Mist
Clouds: Overcast
Visibility: 5 miles , 8 km
Cloud details: Partly cloudy 800 ft
Mostly cloudy 1600 ft
Overcast 2500 ft
2018/12/16 04:30 KNYG 160430Z AUTO 02008KT 5SM -RA BR SCT008 BKN016 OVC025 11/11 A2990 RMK AO2 T01060106 PNO $
 
KFRR - Fort Royal, Virginia, USA
Distance from station: W 37mi, 59km
Updated: Sat, 15-Dec-2018 11:10pm EST
Overcast
Overcast
 
Temperature: 45°F , 7°C
Dew Point: 45°F , 7°C
Humidity: 100%
Barometer: 29.91 inHg , 1012.9 hPa
Clouds: Overcast
Visibility: 5 miles , 8 km
Cloud details: Overcast 300 ft
2018/12/16 04:10 KFRR 160410Z AUTO 5SM OVC003 07/07 A2991 RMK AO1 P0001
KMRB - Martinsburg, West Virginia, USA
Distance from station: NW 38mi, 61km
Updated: Sat, 15-Dec-2018 11:33pm EST
Light rain, Mist, Overcast
Light rain, Mist, Overcast
 Wind from NNE
Wind: NNE 14 mph , 22 km/h
Temperature: 46°F , 8°C
Wind Chill: 40°F , 4°C
Dew Point: 45°F , 7°C
Humidity: 93%
Barometer: 29.93 inHg , 1013.5 hPa
Summary: Light rain, Mist
Clouds: Overcast
Visibility: 6 miles , 10 km
Cloud details: Partly cloudy 800 ft
Mostly cloudy 1600 ft
Overcast 3300 ft
2018/12/16 04:33 KMRB 160433Z AUTO 03012KT 6SM -RA BR SCT008 BKN016 OVC033 08/07 A2993 RMK AO2 P0007 T00780072
 
KADW - Andrews Afb, Maryland, USA
Distance from station: ESE 39mi, 63km
Updated: Sat, 15-Dec-2018 11:29pm EST
Light rain, Overcast
Light rain, Overcast
 Wind from NNE
Wind: NNE 8 mph , 13 km/h
Summary: Light rain
Clouds: Overcast
Visibility: 6 miles , 10 km
Cloud details: Mostly cloudy 400 ft
Overcast 1500 ft
2018/12/16 04:29 KADW 160429Z AUTO 02007KT 6SM -RA BKN004 OVC015 M A2989 RMK AO2 CIG 004V015 BKN V SCT CIG 002 RWY19L SLPNO ALSTG ESTMD $
KRMN - Stafford Regnl, Virginia, USA
Distance from station: S 39mi, 63km
Updated: Sat, 15-Dec-2018 11:35pm EST
Light drizzle, Overcast
Light drizzle, Overcast
 Wind from NNE
Wind: NNE 8 mph , 13 km/h
Temperature: 52°F , 11°C
Dew Point: 52°F , 11°C
Humidity: 100%
Barometer: 29.91 inHg , 1012.9 hPa
Summary: Light Drizzle
Clouds: Overcast
Visibility: 5 miles , 8 km
Cloud details: Mostly cloudy 500 ft
Mostly cloudy 1000 ft
Overcast 2900 ft
2018/12/16 04:35 KRMN 160435Z AUTO 03007KT 5SM -DZ BKN005 BKN010 OVC029 11/11 A2991 RMK AO2 T01100110
 
KFME - Fort Meade, Maryland, USA
Distance from station: ENE 44mi, 70km
Updated: Sat, 15-Dec-2018 11:21pm EST
Overcast
Overcast
 Wind from NE
Wind: NE 3 mph , 6 km/h
Temperature: 46°F , 8°C
Dew Point: 46°F , 8°C
Humidity: 100%
Barometer: 29.94 inHg , 1013.9 hPa
Clouds: Overcast
Visibility: 2 miles , 3 km
Cloud details: Overcast 500 ft
2018/12/16 04:21 KFME 160421Z AUTO 04003KT 2SM OVC005 08/08 A2994 RMK AO1
KRSP - Nsf Thurmont, Maryland, USA
Distance from station: N 48mi, 77km
Updated: Thu, 15-Nov-2018 8:54am EST
NOT Current
Snow, Freezing, Fog, Overcast
Snow, Freezing, Fog, Overcast
 Wind from ESE
Wind: ESE 9 mph , 15 km/h, Gust: 17 mph , 28 km/h
Temperature: 23°F , -5°C
Wind Chill: 13°F , -11°C
Dew Point: 21°F , -6°C
Humidity: 93%
Barometer: 30.45 inHg , 1031.2 hPa
Summary: Snow, Freezing, Fog
Clouds: Overcast
Visibility: 1/4 mile , 0.4 km
Cloud details: Overcast 500 ft
2018/11/15 13:54 KRSP 151354Z AUTO 11008G15KT 1/4SM SN FZFG VV005 M05/M06 A3045 RMK AO2 SLP340 P0018 T10501056 $
 
KEZF - Fredericksb/Shan, Virginia, USA
Distance from station: S 48mi, 78km
Updated: Sat, 15-Dec-2018 11:35pm EST
Light rain, Overcast
Light rain, Overcast
 Wind from N
Wind: N 6 mph , 9 km/h
Temperature: 52°F , 11°C
Dew Point: 52°F , 11°C
Humidity: 100%
Barometer: 29.87 inHg , 1011.5 hPa
Summary: Light rain
Clouds: Overcast
Visibility: 7 miles , 11 km
Cloud details: Overcast 500 ft
2018/12/16 04:35 KEZF 160435Z AUTO 01005KT 7SM -RA OVC005 11/11 A2987 RMK AO2 P0001 T01050105
KBWI - Balto/Wash Intl, Maryland, USA
Distance from station: ENE 49mi, 80km
Updated: Sat, 15-Dec-2018 10:54pm EST
Heavy rain, Mist, Overcast
Heavy rain, Mist, Overcast
 Wind from ENE
Wind: ENE 16 mph , 26 km/h
Temperature: 48°F , 9°C
Wind Chill: 42°F , 6°C
Dew Point: 46°F , 8°C
Humidity: 94%
Barometer: 29.91 inHg , 1012.9 hPa
Summary: Heavy rain, Mist
Clouds: Overcast
Visibility: 2 1/2 miles , 4 km
Cloud details: Overcast 500 ft
2018/12/16 03:54 KBWI 160354Z 06014KT 2 1/2SM +RA BR OVC005 09/08 A2991 RMK AO2 SLP130 P0009 T00890083